Terminal Aerodrome Forecast
Issued by NWS Knoxville/Tri Cities, TN

Home | Current Version | Previous Version | Text Only | Print | Product List | Glossary On
Versions: 1 2 3 4 5 6 7 8 9 10 11 12 13 14 15 16 17 18 19 20 21 22 23 24 25 26
000
FTUS44 KMRX 231729
TAFTRI
TAF
KTRI 231729Z 2318/2418 10014G22KT P6SM VCSH SCT030 BKN080
     FM240200 11014G24KT P6SM VCSH BKN070 WS020/12045KT
     FM240800 13009KT P6SM SCT020 BKN060
     FM241400 10007KT P6SM SCT010 BKN035=

USA.gov is the U.S. government's official web portal to all federal, state and local government web resources and services.